createdAt,value
2023-01-31T00:03:23.012Z,5.93
2023-01-31T00:09:05.754Z,5.94
2023-01-31T00:14:29.440Z,5.54
2023-01-31T00:19:53.927Z,5.94
2023-01-31T00:25:19.817Z,5.66
2023-01-31T00:30:44.204Z,5.07
2023-01-31T00:36:09.534Z,4.17
2023-01-31T00:41:30.087Z,3.89
2023-01-31T00:46:50.793Z,4.22
2023-01-31T00:52:11.205Z,3.97
2023-01-31T00:57:32.968Z,3.57
2023-01-31T01:02:58.884Z,3.79
2023-01-31T01:08:23.935Z,3.95
2023-01-31T01:13:47.828Z,3.32
2023-01-31T01:19:12.971Z,3.63
2023-01-31T01:24:33.985Z,4.01
2023-01-31T01:29:56.488Z,3.70
2023-01-31T01:35:22.093Z,3.70
2023-01-31T01:40:42.147Z,4.11
2023-01-31T01:46:07.005Z,4.04
2023-01-31T01:51:32.267Z,3.91
2023-01-31T01:56:52.796Z,4.32
2023-01-31T02:02:13.812Z,4.34
2023-01-31T02:07:36.325Z,4.31
2023-01-31T02:12:59.291Z,4.32
2023-01-31T02:18:23.614Z,3.74
2023-01-31T02:23:45.765Z,3.90
2023-01-31T02:29:29.795Z,3.78
2023-01-31T02:34:58.897Z,4.47
2023-01-31T02:40:45.403Z,4.66
2023-01-31T02:46:05.461Z,4.09
2023-01-31T02:51:31.371Z,4.19
2023-01-31T02:56:54.380Z,4.89
2023-01-31T03:02:20.633Z,4.28
2023-01-31T03:08:02.469Z,3.90
2023-01-31T03:13:24.863Z,4.67
2023-01-31T03:18:48.429Z,3.91
2023-01-31T03:24:14.092Z,4.17
2023-01-31T03:29:37.616Z,3.59
2023-01-31T03:35:02.127Z,4.39
2023-01-31T03:40:27.279Z,4.51
2023-01-31T03:46:03.103Z,3.86
2023-01-31T03:51:26.054Z,4.47
2023-01-31T03:56:47.980Z,3.94
2023-01-31T04:02:11.555Z,4.11
2023-01-31T04:07:36.299Z,4.34
2023-01-31T04:12:57.563Z,6.80
2023-01-31T04:18:15.579Z,4.90
2023-01-31T04:23:40.969Z,3.94
2023-01-31T04:29:03.004Z,3.98
2023-01-31T04:34:25.692Z,3.92
2023-01-31T04:39:51.024Z,3.91
2023-01-31T04:45:13.078Z,4.06
2023-01-31T04:50:34.040Z,3.75
2023-01-31T04:55:58.688Z,4.95
2023-01-31T05:01:21.336Z,9.91
2023-01-31T05:06:43.354Z,9.15
2023-01-31T05:12:04.181Z,6.87
2023-01-31T05:17:28.636Z,4.29
2023-01-31T05:22:52.862Z,4.66
2023-01-31T05:28:15.981Z,4.15
2023-01-31T05:33:39.946Z,4.46
2023-01-31T05:39:04.548Z,4.72
2023-01-31T05:44:29.302Z,5.05
2023-01-31T05:50:15.753Z,6.04
2023-01-31T05:55:38.537Z,4.83
2023-01-31T06:01:03.294Z,4.20
2023-01-31T06:06:49.251Z,5.50
2023-01-31T06:12:10.033Z,4.80
2023-01-31T06:17:34.482Z,4.43
2023-01-31T06:22:59.686Z,5.33
2023-01-31T06:28:22.811Z,4.69
2023-01-31T06:33:47.727Z,4.97
2023-01-31T06:39:31.706Z,5.86
2023-01-31T06:44:53.249Z,5.59
2023-01-31T06:50:17.566Z,5.75
2023-01-31T06:55:35.787Z,5.76
2023-01-31T07:00:55.520Z,5.57
2023-01-31T07:06:17.384Z,5.82
2023-01-31T07:11:38.623Z,6.51
2023-01-31T07:17:01.670Z,6.92
2023-01-31T07:22:25.144Z,6.61
2023-01-31T07:27:50.520Z,7.34
2023-01-31T07:33:10.390Z,7.75
2023-01-31T07:38:30.028Z,7.42
2023-01-31T07:43:49.097Z,7.40
2023-01-31T07:49:32.397Z,8.28
2023-01-31T07:54:54.609Z,7.83
2023-01-31T08:00:18.142Z,6.62
2023-01-31T08:05:57.303Z,7.76
2023-01-31T08:11:20.689Z,6.87
2023-01-31T08:16:45.929Z,7.40
2023-01-31T08:22:10.217Z,6.71
2023-01-31T08:27:33.946Z,7.12
2023-01-31T08:32:55.376Z,7.65
2023-01-31T08:38:19.829Z,7.47
2023-01-31T08:43:55.874Z,6.94
2023-01-31T08:49:26.083Z,7.33
2023-01-31T08:54:50.175Z,7.40
2023-01-31T09:00:13.341Z,5.71
2023-01-31T09:05:37.038Z,6.43
2023-01-31T09:11:01.933Z,5.85
2023-01-31T09:16:41.328Z,6.12
2023-01-31T09:22:00.029Z,5.66
2023-01-31T09:27:21.536Z,6.14
2023-01-31T09:32:45.999Z,5.65
2023-01-31T09:38:10.379Z,5.95
2023-01-31T09:43:33.523Z,6.12
2023-01-31T09:48:56.855Z,6.28
2023-01-31T09:54:19.317Z,5.58
2023-01-31T09:59:41.368Z,4.86
2023-01-31T10:05:05.593Z,5.31
2023-01-31T10:10:30.380Z,5.40
2023-01-31T10:16:17.529Z,5.83
2023-01-31T10:21:40.441Z,4.55
2023-01-31T10:27:05.147Z,4.84
2023-01-31T10:32:44.498Z,4.79
2023-01-31T10:38:08.004Z,4.87
2023-01-31T10:43:32.971Z,4.94
2023-01-31T10:48:57.720Z,5.19
2023-01-31T10:54:20.364Z,5.78
2023-01-31T11:00:07.265Z,5.84
2023-01-31T11:05:34.721Z,6.08
2023-01-31T11:10:56.815Z,4.95
2023-01-31T11:16:19.882Z,5.02
2023-01-31T11:21:43.747Z,4.95
2023-01-31T11:27:08.162Z,4.60
2023-01-31T11:32:28.278Z,5.50
2023-01-31T11:37:53.578Z,4.00
2023-01-31T11:43:12.444Z,4.23
2023-01-31T11:48:38.975Z,4.10
2023-01-31T11:54:02.053Z,3.89
2023-01-31T11:59:24.063Z,4.12
2023-01-31T12:04:48.834Z,4.64
2023-01-31T12:10:10.627Z,4.00
2023-01-31T12:15:43.570Z,4.41
2023-01-31T12:21:04.967Z,3.28
2023-01-31T12:26:26.484Z,3.75
2023-01-31T12:31:54.877Z,3.40
2023-01-31T12:37:36.393Z,3.35
2023-01-31T12:43:01.964Z,3.55
2023-01-31T12:48:30.295Z,3.38
2023-01-31T12:54:12.346Z,3.68
2023-01-31T12:59:49.554Z,3.46
2023-01-31T13:05:14.876Z,3.40
2023-01-31T13:10:39.106Z,4.00
2023-01-31T13:16:03.041Z,4.00
2023-01-31T13:21:24.249Z,3.76
2023-01-31T13:26:44.793Z,3.81
2023-01-31T13:32:06.034Z,4.03
2023-01-31T13:37:29.951Z,4.08
2023-01-31T13:42:51.667Z,3.64
2023-01-31T13:48:14.691Z,4.22
2023-01-31T13:53:36.781Z,3.92
2023-01-31T13:59:03.490Z,4.04
2023-01-31T14:04:24.584Z,3.63
2023-01-31T14:09:45.365Z,3.36
2023-01-31T14:15:39.394Z,4.12
2023-01-31T14:21:06.235Z,3.89
2023-01-31T14:27:03.513Z,4.34
2023-01-31T14:32:32.122Z,5.17
2023-01-31T14:37:55.453Z,4.51
2023-01-31T14:43:20.552Z,4.53
2023-01-31T14:48:46.780Z,4.83
2023-01-31T14:54:38.359Z,5.45
2023-01-31T15:00:35.535Z,5.56
2023-01-31T15:05:59.746Z,5.55
2023-01-31T15:11:40.138Z,6.02
2023-01-31T15:16:52.815Z,6.36
2023-01-31T15:22:13.285Z,6.04
2023-01-31T15:27:33.826Z,6.01
2023-01-31T15:32:58.833Z,6.29
2023-01-31T15:38:23.286Z,5.47
2023-01-31T15:43:43.894Z,6.60
2023-01-31T15:49:04.681Z,6.42
2023-01-31T15:54:35.687Z,6.69
2023-01-31T16:00:02.507Z,6.30
2023-01-31T16:05:32.565Z,5.88
2023-01-31T16:10:55.381Z,6.24
2023-01-31T16:16:19.232Z,6.01
2023-01-31T16:21:42.835Z,6.70
2023-01-31T16:27:30.856Z,7.40
2023-01-31T16:32:54.463Z,6.72
2023-01-31T16:38:16.827Z,6.31
2023-01-31T16:43:37.455Z,6.23
2023-01-31T16:48:59.651Z,6.36
2023-01-31T16:54:23.321Z,6.06
2023-01-31T16:59:43.645Z,6.44
2023-01-31T17:05:10.001Z,5.52
2023-01-31T17:10:36.006Z,4.57
2023-01-31T17:16:01.399Z,4.39
2023-01-31T17:21:32.051Z,4.32
2023-01-31T17:26:56.395Z,4.07
2023-01-31T17:32:21.291Z,3.60
2023-01-31T17:37:44.857Z,3.16
2023-01-31T17:43:10.571Z,3.85
2023-01-31T17:48:36.228Z,3.84
2023-01-31T17:54:14.351Z,4.76
2023-01-31T17:59:37.243Z,4.45
2023-01-31T18:05:02.279Z,4.73
2023-01-31T18:10:28.136Z,4.27
2023-01-31T18:15:50.426Z,5.34
2023-01-31T18:21:18.904Z,8.28
2023-01-31T18:26:39.956Z,6.86
2023-01-31T18:32:04.507Z,6.54
2023-01-31T18:37:27.352Z,5.34
2023-01-31T18:42:49.938Z,4.99
2023-01-31T18:48:15.301Z,4.94
2023-01-31T18:53:33.716Z,4.29
2023-01-31T18:58:53.973Z,4.01
2023-01-31T19:04:15.255Z,4.22
2023-01-31T19:09:40.105Z,2.86
2023-01-31T19:15:23.546Z,3.49
2023-01-31T19:20:44.814Z,3.14
2023-01-31T19:26:28.156Z,3.34
2023-01-31T19:31:52.317Z,3.01
2023-01-31T19:37:15.311Z,3.01
2023-01-31T19:42:36.610Z,2.93
2023-01-31T19:47:58.337Z,2.25
2023-01-31T19:53:22.230Z,2.50
2023-01-31T19:58:45.655Z,2.17
2023-01-31T20:04:10.015Z,2.30
2023-01-31T20:09:31.983Z,2.28
2023-01-31T20:14:54.963Z,2.28
2023-01-31T20:20:20.445Z,2.06
2023-01-31T20:25:59.983Z,2.03
2023-01-31T20:31:21.892Z,1.80
2023-01-31T20:36:46.754Z,2.10
2023-01-31T20:42:08.405Z,1.47
2023-01-31T20:47:32.231Z,1.74
2023-01-31T20:52:57.197Z,1.55
2023-01-31T20:58:20.186Z,1.44
2023-01-31T21:03:40.229Z,1.54
2023-01-31T21:09:00.128Z,1.26
2023-01-31T21:14:23.145Z,1.32
2023-01-31T21:19:47.990Z,1.26
2023-01-31T21:25:11.509Z,1.61
2023-01-31T21:30:54.516Z,1.28
2023-01-31T21:36:14.309Z,1.24
2023-01-31T21:41:36.273Z,1.63
2023-01-31T21:46:55.251Z,1.21
2023-01-31T21:52:17.596Z,1.26
2023-01-31T21:57:41.341Z,1.65
2023-01-31T22:03:03.027Z,1.37
2023-01-31T22:08:27.267Z,1.37
2023-01-31T22:13:46.647Z,1.27
2023-01-31T22:19:09.666Z,1.59
2023-01-31T22:24:34.509Z,1.75
2023-01-31T22:30:22.387Z,1.51
2023-01-31T22:35:43.703Z,1.41
2023-01-31T22:41:08.180Z,1.52
2023-01-31T22:46:31.087Z,1.66
2023-01-31T22:51:53.269Z,1.64
2023-01-31T22:57:13.496Z,1.42
2023-01-31T23:02:39.320Z,1.60
2023-01-31T23:08:02.870Z,1.92
2023-01-31T23:13:24.206Z,1.99
2023-01-31T23:18:47.230Z,2.61
2023-01-31T23:24:05.557Z,2.75
2023-01-31T23:29:27.899Z,2.46
2023-01-31T23:34:54.974Z,2.38
2023-01-31T23:40:39.323Z,2.27
2023-01-31T23:46:06.144Z,2.30
2023-01-31T23:51:30.697Z,2.17
2023-01-31T23:56:56.193Z,2.31
